sensor_id;sensor_type;location;lat;lon;timestamp;P1;durP1;ratioP1;P2;durP2;ratioP2
46717;SDS011;32448;44.960;-0.698;2022-10-28T00:01:16;16.60;;;6.53;;
46717;SDS011;32448;44.960;-0.698;2022-10-28T00:03:46;16.45;;;6.75;;
46717;SDS011;32448;44.960;-0.698;2022-10-28T00:06:16;17.40;;;5.70;;
46717;SDS011;32448;44.960;-0.698;2022-10-28T00:09:10;20.13;;;7.55;;
46717;SDS011;32448;44.960;-0.698;2022-10-28T00:11:37;17.60;;;6.53;;
46717;SDS011;32448;44.960;-0.698;2022-10-28T00:14:05;17.05;;;6.25;;
46717;SDS011;32448;44.960;-0.698;2022-10-28T00:16:34;16.83;;;6.45;;
46717;SDS011;32448;44.960;-0.698;2022-10-28T00:19:03;16.35;;;6.40;;
46717;SDS011;32448;44.960;-0.698;2022-10-28T00:21:33;15.75;;;6.20;;
46717;SDS011;32448;44.960;-0.698;2022-10-28T00:24:02;18.30;;;6.45;;
46717;SDS011;32448;44.960;-0.698;2022-10-28T00:26:30;15.90;;;6.43;;
46717;SDS011;32448;44.960;-0.698;2022-10-28T00:29:03;13.52;;;7.20;;
46717;SDS011;32448;44.960;-0.698;2022-10-28T00:31:32;19.67;;;6.90;;
46717;SDS011;32448;44.960;-0.698;2022-10-28T00:34:02;15.68;;;5.75;;
46717;SDS011;32448;44.960;-0.698;2022-10-28T00:36:32;15.20;;;5.90;;
46717;SDS011;32448;44.960;-0.698;2022-10-28T00:39:01;14.55;;;6.07;;
46717;SDS011;32448;44.960;-0.698;2022-10-28T00:41:31;14.82;;;6.28;;
46717;SDS011;32448;44.960;-0.698;2022-10-28T00:44:48;14.18;;;6.47;;
46717;SDS011;32448;44.960;-0.698;2022-10-28T00:47:03;16.40;;;6.47;;
46717;SDS011;32448;44.960;-0.698;2022-10-28T00:49:36;14.20;;;6.00;;
46717;SDS011;32448;44.960;-0.698;2022-10-28T00:52:05;21.08;;;6.63;;
46717;SDS011;32448;44.960;-0.698;2022-10-28T00:54:36;19.42;;;6.40;;
46717;SDS011;32448;44.960;-0.698;2022-10-28T00:57:05;14.07;;;6.18;;
46717;SDS011;32448;44.960;-0.698;2022-10-28T00:59:37;16.00;;;6.95;;
46717;SDS011;32448;44.960;-0.698;2022-10-28T01:02:09;15.30;;;6.00;;
46717;SDS011;32448;44.960;-0.698;2022-10-28T01:04:37;14.35;;;5.75;;
46717;SDS011;32448;44.960;-0.698;2022-10-28T01:07:05;15.00;;;6.03;;
46717;SDS011;32448;44.960;-0.698;2022-10-28T01:09:32;15.77;;;6.53;;
46717;SDS011;32448;44.960;-0.698;2022-10-28T01:12:07;14.00;;;5.40;;
46717;SDS011;32448;44.960;-0.698;2022-10-28T01:15:03;13.07;;;5.90;;
46717;SDS011;32448;44.960;-0.698;2022-10-28T01:20:47;11.85;;;5.55;;
46717;SDS011;32448;44.960;-0.698;2022-10-28T01:23:30;17.63;;;5.63;;
46717;SDS011;32448;44.960;-0.698;2022-10-28T01:29:21;13.57;;;6.50;;
46717;SDS011;32448;44.960;-0.698;2022-10-28T01:32:47;14.35;;;5.90;;
46717;SDS011;32448;44.960;-0.698;2022-10-28T01:34:59;13.70;;;5.93;;
46717;SDS011;32448;44.960;-0.698;2022-10-28T01:40:19;13.63;;;6.03;;
46717;SDS011;32448;44.960;-0.698;2022-10-28T01:45:50;15.80;;;5.80;;
46717;SDS011;32448;44.960;-0.698;2022-10-28T01:48:29;15.98;;;6.50;;
46717;SDS011;32448;44.960;-0.698;2022-10-28T01:51:08;15.10;;;6.03;;
46717;SDS011;32448;44.960;-0.698;2022-10-28T01:53:43;15.98;;;5.85;;
46717;SDS011;32448;44.960;-0.698;2022-10-28T01:56:13;15.68;;;6.40;;
46717;SDS011;32448;44.960;-0.698;2022-10-28T01:58:45;25.33;;;6.50;;
46717;SDS011;32448;44.960;-0.698;2022-10-28T02:01:14;17.13;;;5.97;;
46717;SDS011;32448;44.960;-0.698;2022-10-28T02:03:44;17.08;;;6.13;;
46717;SDS011;32448;44.960;-0.698;2022-10-28T02:06:17;16.95;;;6.15;;
46717;SDS011;32448;44.960;-0.698;2022-10-28T02:11:33;12.65;;;6.30;;
46717;SDS011;32448;44.960;-0.698;2022-10-28T02:14:22;12.13;;;5.88;;
46717;SDS011;32448;44.960;-0.698;2022-10-28T02:23:10;14.18;;;6.05;;
46717;SDS011;32448;44.960;-0.698;2022-10-28T02:34:14;16.05;;;6.38;;
46717;SDS011;32448;44.960;-0.698;2022-10-28T02:36:47;17.13;;;6.68;;
46717;SDS011;32448;44.960;-0.698;2022-10-28T02:39:17;19.92;;;6.20;;
46717;SDS011;32448;44.960;-0.698;2022-10-28T02:41:54;16.02;;;5.78;;
46717;SDS011;32448;44.960;-0.698;2022-10-28T02:44:34;13.50;;;6.20;;
46717;SDS011;32448;44.960;-0.698;2022-10-28T02:47:08;19.77;;;6.10;;
46717;SDS011;32448;44.960;-0.698;2022-10-28T02:49:40;20.13;;;6.47;;
46717;SDS011;32448;44.960;-0.698;2022-10-28T02:52:10;18.58;;;6.88;;
46717;SDS011;32448;44.960;-0.698;2022-10-28T02:57:36;15.68;;;5.70;;
46717;SDS011;32448;44.960;-0.698;2022-10-28T03:00:08;13.73;;;5.82;;
46717;SDS011;32448;44.960;-0.698;2022-10-28T03:02:39;13.85;;;6.03;;
46717;SDS011;32448;44.960;-0.698;2022-10-28T03:05:07;12.13;;;6.18;;
46717;SDS011;32448;44.960;-0.698;2022-10-28T03:07:34;15.32;;;5.90;;
46717;SDS011;32448;44.960;-0.698;2022-10-28T03:10:01;17.45;;;6.00;;
46717;SDS011;32448;44.960;-0.698;2022-10-28T03:12:29;12.68;;;5.55;;
46717;SDS011;32448;44.960;-0.698;2022-10-28T03:14:56;9.35;;;5.88;;
46717;SDS011;32448;44.960;-0.698;2022-10-28T03:17:23;14.95;;;6.22;;
46717;SDS011;32448;44.960;-0.698;2022-10-28T03:19:50;14.40;;;5.90;;
46717;SDS011;32448;44.960;-0.698;2022-10-28T03:22:17;17.15;;;5.57;;
46717;SDS011;32448;44.960;-0.698;2022-10-28T03:24:44;16.70;;;5.80;;
46717;SDS011;32448;44.960;-0.698;2022-10-28T03:27:11;13.18;;;6.03;;
46717;SDS011;32448;44.960;-0.698;2022-10-28T03:29:38;16.00;;;5.70;;
46717;SDS011;32448;44.960;-0.698;2022-10-28T03:32:11;14.70;;;6.10;;
46717;SDS011;32448;44.960;-0.698;2022-10-28T03:34:38;13.25;;;5.93;;
46717;SDS011;32448;44.960;-0.698;2022-10-28T03:37:05;17.05;;;5.35;;
46717;SDS011;32448;44.960;-0.698;2022-10-28T03:39:33;13.25;;;6.00;;
46717;SDS011;32448;44.960;-0.698;2022-10-28T03:42:00;15.75;;;5.70;;
46717;SDS011;32448;44.960;-0.698;2022-10-28T03:44:27;12.40;;;5.88;;
46717;SDS011;32448;44.960;-0.698;2022-10-28T03:46:54;13.43;;;6.10;;
46717;SDS011;32448;44.960;-0.698;2022-10-28T03:49:21;13.23;;;5.88;;
46717;SDS011;32448;44.960;-0.698;2022-10-28T03:51:49;12.13;;;5.55;;
46717;SDS011;32448;44.960;-0.698;2022-10-28T03:54:16;12.98;;;5.90;;
46717;SDS011;32448;44.960;-0.698;2022-10-28T03:56:43;10.23;;;5.35;;
46717;SDS011;32448;44.960;-0.698;2022-10-28T03:59:10;15.65;;;5.47;;
46717;SDS011;32448;44.960;-0.698;2022-10-28T04:01:41;12.82;;;5.93;;
46717;SDS011;32448;44.960;-0.698;2022-10-28T04:04:09;13.57;;;6.00;;
46717;SDS011;32448;44.960;-0.698;2022-10-28T04:06:36;13.30;;;6.07;;
46717;SDS011;32448;44.960;-0.698;2022-10-28T04:09:03;11.70;;;6.78;;
46717;SDS011;32448;44.960;-0.698;2022-10-28T04:11:30;15.05;;;5.53;;
46717;SDS011;32448;44.960;-0.698;2022-10-28T04:13:57;13.43;;;6.00;;
46717;SDS011;32448;44.960;-0.698;2022-10-28T04:16:24;13.70;;;5.72;;
46717;SDS011;32448;44.960;-0.698;2022-10-28T04:18:51;18.88;;;6.05;;
46717;SDS011;32448;44.960;-0.698;2022-10-28T04:21:19;14.27;;;5.88;;
46717;SDS011;32448;44.960;-0.698;2022-10-28T04:23:46;14.52;;;5.63;;
46717;SDS011;32448;44.960;-0.698;2022-10-28T04:26:13;13.85;;;5.43;;
46717;SDS011;32448;44.960;-0.698;2022-10-28T04:28:41;16.08;;;6.20;;
46717;SDS011;32448;44.960;-0.698;2022-10-28T04:31:08;13.10;;;5.95;;
46717;SDS011;32448;44.960;-0.698;2022-10-28T04:33:37;15.90;;;6.25;;
46717;SDS011;32448;44.960;-0.698;2022-10-28T04:36:05;13.95;;;6.68;;
46717;SDS011;32448;44.960;-0.698;2022-10-28T04:38:33;18.25;;;6.03;;
46717;SDS011;32448;44.960;-0.698;2022-10-28T04:41:05;13.43;;;6.00;;
46717;SDS011;32448;44.960;-0.698;2022-10-28T04:43:35;11.60;;;5.57;;
46717;SDS011;32448;44.960;-0.698;2022-10-28T04:46:03;14.32;;;6.00;;
46717;SDS011;32448;44.960;-0.698;2022-10-28T04:48:35;11.93;;;5.43;;
46717;SDS011;32448;44.960;-0.698;2022-10-28T04:51:03;11.38;;;6.32;;
46717;SDS011;32448;44.960;-0.698;2022-10-28T04:53:36;14.82;;;6.30;;
46717;SDS011;32448;44.960;-0.698;2022-10-28T04:56:07;14.90;;;6.28;;
46717;SDS011;32448;44.960;-0.698;2022-10-28T04:58:37;12.55;;;5.60;;
46717;SDS011;32448;44.960;-0.698;2022-10-28T05:01:08;10.20;;;5.78;;
46717;SDS011;32448;44.960;-0.698;2022-10-28T05:03:42;17.85;;;6.18;;
46717;SDS011;32448;44.960;-0.698;2022-10-28T05:06:18;13.75;;;5.63;;
46717;SDS011;32448;44.960;-0.698;2022-10-28T05:08:55;13.88;;;5.78;;
46717;SDS011;32448;44.960;-0.698;2022-10-28T05:11:22;12.07;;;6.03;;
46717;SDS011;32448;44.960;-0.698;2022-10-28T05:13:57;13.95;;;6.22;;
46717;SDS011;32448;44.960;-0.698;2022-10-28T05:16:30;11.85;;;5.35;;
46717;SDS011;32448;44.960;-0.698;2022-10-28T05:18:58;12.35;;;5.50;;
46717;SDS011;32448;44.960;-0.698;2022-10-28T05:21:31;8.45;;;5.38;;
46717;SDS011;32448;44.960;-0.698;2022-10-28T05:23:59;13.23;;;6.03;;
46717;SDS011;32448;44.960;-0.698;2022-10-28T05:26:27;12.65;;;5.50;;
46717;SDS011;32448;44.960;-0.698;2022-10-28T05:28:54;12.32;;;5.47;;
46717;SDS011;32448;44.960;-0.698;2022-10-28T05:31:22;15.45;;;6.38;;
46717;SDS011;32448;44.960;-0.698;2022-10-28T05:33:50;14.85;;;5.40;;
46717;SDS011;32448;44.960;-0.698;2022-10-28T05:36:18;12.02;;;6.85;;
46717;SDS011;32448;44.960;-0.698;2022-10-28T05:38:45;13.68;;;6.05;;
46717;SDS011;32448;44.960;-0.698;2022-10-28T05:41:12;16.00;;;6.63;;
46717;SDS011;32448;44.960;-0.698;2022-10-28T05:43:39;16.60;;;5.78;;
46717;SDS011;32448;44.960;-0.698;2022-10-28T05:46:07;12.50;;;6.30;;
46717;SDS011;32448;44.960;-0.698;2022-10-28T05:48:35;9.30;;;5.80;;
46717;SDS011;32448;44.960;-0.698;2022-10-28T05:51:02;12.70;;;5.97;;
46717;SDS011;32448;44.960;-0.698;2022-10-28T05:53:30;12.70;;;5.63;;
46717;SDS011;32448;44.960;-0.698;2022-10-28T05:55:58;12.52;;;6.20;;
46717;SDS011;32448;44.960;-0.698;2022-10-28T05:58:35;12.10;;;5.95;;
46717;SDS011;32448;44.960;-0.698;2022-10-28T06:01:14;12.90;;;6.18;;
46717;SDS011;32448;44.960;-0.698;2022-10-28T06:03:42;12.07;;;5.75;;
46717;SDS011;32448;44.960;-0.698;2022-10-28T06:06:10;12.13;;;5.72;;
46717;SDS011;32448;44.960;-0.698;2022-10-28T06:08:38;9.98;;;5.78;;
46717;SDS011;32448;44.960;-0.698;2022-10-28T06:11:06;13.23;;;6.05;;
46717;SDS011;32448;44.960;-0.698;2022-10-28T06:13:34;13.77;;;5.97;;
46717;SDS011;32448;44.960;-0.698;2022-10-28T06:16:01;14.45;;;5.93;;
46717;SDS011;32448;44.960;-0.698;2022-10-28T06:18:29;16.88;;;6.68;;
46717;SDS011;32448;44.960;-0.698;2022-10-28T06:20:57;14.50;;;6.43;;
46717;SDS011;32448;44.960;-0.698;2022-10-28T06:23:25;14.20;;;6.45;;
46717;SDS011;32448;44.960;-0.698;2022-10-28T06:25:55;12.95;;;5.90;;
46717;SDS011;32448;44.960;-0.698;2022-10-28T06:28:24;12.43;;;5.75;;
46717;SDS011;32448;44.960;-0.698;2022-10-28T06:30:52;12.90;;;6.10;;
46717;SDS011;32448;44.960;-0.698;2022-10-28T06:33:22;10.40;;;5.78;;
46717;SDS011;32448;44.960;-0.698;2022-10-28T06:35:49;11.10;;;6.32;;
46717;SDS011;32448;44.960;-0.698;2022-10-28T06:38:24;13.05;;;5.72;;
46717;SDS011;32448;44.960;-0.698;2022-10-28T06:40:53;13.88;;;5.88;;
46717;SDS011;32448;44.960;-0.698;2022-10-28T06:43:20;13.32;;;6.47;;
46717;SDS011;32448;44.960;-0.698;2022-10-28T06:45:47;15.40;;;5.93;;
46717;SDS011;32448;44.960;-0.698;2022-10-28T06:48:21;10.95;;;6.20;;
46717;SDS011;32448;44.960;-0.698;2022-10-28T06:50:49;13.15;;;5.82;;
46717;SDS011;32448;44.960;-0.698;2022-10-28T06:53:17;15.10;;;6.13;;
46717;SDS011;32448;44.960;-0.698;2022-10-28T06:55:50;10.38;;;5.57;;
46717;SDS011;32448;44.960;-0.698;2022-10-28T06:58:23;14.30;;;5.93;;
46717;SDS011;32448;44.960;-0.698;2022-10-28T07:00:51;11.68;;;6.95;;
46717;SDS011;32448;44.960;-0.698;2022-10-28T07:03:19;12.80;;;6.43;;
46717;SDS011;32448;44.960;-0.698;2022-10-28T07:05:47;12.73;;;7.05;;
46717;SDS011;32448;44.960;-0.698;2022-10-28T07:08:17;12.75;;;5.85;;
46717;SDS011;32448;44.960;-0.698;2022-10-28T07:10:55;17.63;;;6.68;;
46717;SDS011;32448;44.960;-0.698;2022-10-28T07:13:24;13.73;;;6.35;;
46717;SDS011;32448;44.960;-0.698;2022-10-28T07:15:52;14.18;;;6.72;;
46717;SDS011;32448;44.960;-0.698;2022-10-28T07:18:25;17.02;;;7.00;;
46717;SDS011;32448;44.960;-0.698;2022-10-28T07:20:58;13.32;;;5.93;;
46717;SDS011;32448;44.960;-0.698;2022-10-28T07:23:26;11.68;;;6.25;;
46717;SDS011;32448;44.960;-0.698;2022-10-28T07:25:55;11.75;;;6.65;;
46717;SDS011;32448;44.960;-0.698;2022-10-28T07:28:23;10.35;;;5.97;;
46717;SDS011;32448;44.960;-0.698;2022-10-28T07:30:52;12.50;;;6.25;;
46717;SDS011;32448;44.960;-0.698;2022-10-28T07:33:19;12.48;;;6.90;;
46717;SDS011;32448;44.960;-0.698;2022-10-28T07:35:46;11.20;;;6.28;;
46717;SDS011;32448;44.960;-0.698;2022-10-28T07:38:14;12.35;;;6.20;;
46717;SDS011;32448;44.960;-0.698;2022-10-28T07:40:41;11.98;;;6.30;;
46717;SDS011;32448;44.960;-0.698;2022-10-28T07:43:08;11.45;;;5.97;;
46717;SDS011;32448;44.960;-0.698;2022-10-28T07:45:36;14.65;;;6.70;;
46717;SDS011;32448;44.960;-0.698;2022-10-28T07:48:04;15.65;;;6.00;;
46717;SDS011;32448;44.960;-0.698;2022-10-28T07:50:32;14.68;;;6.30;;
46717;SDS011;32448;44.960;-0.698;2022-10-28T07:52:59;15.85;;;6.95;;
46717;SDS011;32448;44.960;-0.698;2022-10-28T07:55:28;11.73;;;6.15;;
46717;SDS011;32448;44.960;-0.698;2022-10-28T07:57:55;13.55;;;6.60;;
46717;SDS011;32448;44.960;-0.698;2022-10-28T08:00:23;13.60;;;6.65;;
46717;SDS011;32448;44.960;-0.698;2022-10-28T08:02:50;13.50;;;6.07;;
46717;SDS011;32448;44.960;-0.698;2022-10-28T08:05:17;10.10;;;5.80;;
46717;SDS011;32448;44.960;-0.698;2022-10-28T08:07:45;10.73;;;5.65;;
46717;SDS011;32448;44.960;-0.698;2022-10-28T08:10:13;11.60;;;5.95;;
46717;SDS011;32448;44.960;-0.698;2022-10-28T08:12:40;11.45;;;5.80;;
46717;SDS011;32448;44.960;-0.698;2022-10-28T08:15:08;12.80;;;6.20;;
46717;SDS011;32448;44.960;-0.698;2022-10-28T08:17:36;10.77;;;6.75;;
46717;SDS011;32448;44.960;-0.698;2022-10-28T08:20:04;19.40;;;7.05;;
46717;SDS011;32448;44.960;-0.698;2022-10-28T08:22:33;13.52;;;6.30;;
46717;SDS011;32448;44.960;-0.698;2022-10-28T08:25:02;15.75;;;7.03;;
46717;SDS011;32448;44.960;-0.698;2022-10-28T08:27:31;13.43;;;7.00;;
46717;SDS011;32448;44.960;-0.698;2022-10-28T08:30:02;15.25;;;7.15;;
46717;SDS011;32448;44.960;-0.698;2022-10-28T08:32:31;15.55;;;7.25;;
46717;SDS011;32448;44.960;-0.698;2022-10-28T08:34:58;12.25;;;7.15;;
46717;SDS011;32448;44.960;-0.698;2022-10-28T08:37:26;11.48;;;7.53;;
46717;SDS011;32448;44.960;-0.698;2022-10-28T08:39:53;18.92;;;7.78;;
46717;SDS011;32448;44.960;-0.698;2022-10-28T08:44:51;14.27;;;7.35;;
46717;SDS011;32448;44.960;-0.698;2022-10-28T08:50:12;12.30;;;6.88;;
46717;SDS011;32448;44.960;-0.698;2022-10-28T08:55:38;13.10;;;6.63;;
46717;SDS011;32448;44.960;-0.698;2022-10-28T08:58:20;12.98;;;6.45;;
46717;SDS011;32448;44.960;-0.698;2022-10-28T09:00:52;16.20;;;6.60;;
46717;SDS011;32448;44.960;-0.698;2022-10-28T09:03:22;16.48;;;6.80;;
46717;SDS011;32448;44.960;-0.698;2022-10-28T09:05:59;19.58;;;6.88;;
46717;SDS011;32448;44.960;-0.698;2022-10-28T09:08:39;16.48;;;7.18;;
46717;SDS011;32448;44.960;-0.698;2022-10-28T09:11:19;14.37;;;7.17;;
46717;SDS011;32448;44.960;-0.698;2022-10-28T09:14:07;15.20;;;6.68;;
46717;SDS011;32448;44.960;-0.698;2022-10-28T09:16:45;12.02;;;6.65;;
46717;SDS011;32448;44.960;-0.698;2022-10-28T09:24:58;13.93;;;6.80;;
46717;SDS011;32448;44.960;-0.698;2022-10-28T09:27:41;11.07;;;6.80;;
46717;SDS011;32448;44.960;-0.698;2022-10-28T09:36:06;12.02;;;5.75;;
46717;SDS011;32448;44.960;-0.698;2022-10-28T09:38:42;12.88;;;7.03;;
46717;SDS011;32448;44.960;-0.698;2022-10-28T09:41:12;13.10;;;5.82;;
46717;SDS011;32448;44.960;-0.698;2022-10-28T09:43:47;9.40;;;6.60;;
46717;SDS011;32448;44.960;-0.698;2022-10-28T09:46:18;14.95;;;6.82;;
46717;SDS011;32448;44.960;-0.698;2022-10-28T09:48:50;14.32;;;6.68;;
46717;SDS011;32448;44.960;-0.698;2022-10-28T09:53:51;18.25;;;6.45;;
46717;SDS011;32448;44.960;-0.698;2022-10-28T09:56:22;11.55;;;5.70;;
46717;SDS011;32448;44.960;-0.698;2022-10-28T09:58:50;13.48;;;5.63;;
46717;SDS011;32448;44.960;-0.698;2022-10-28T10:01:19;14.13;;;6.65;;
46717;SDS011;32448;44.960;-0.698;2022-10-28T10:03:46;11.70;;;5.85;;
46717;SDS011;32448;44.960;-0.698;2022-10-28T10:08:59;10.38;;;5.68;;
46717;SDS011;32448;44.960;-0.698;2022-10-28T10:11:27;12.52;;;5.93;;
46717;SDS011;32448;44.960;-0.698;2022-10-28T10:14:02;14.55;;;6.28;;
46717;SDS011;32448;44.960;-0.698;2022-10-28T10:16:52;10.93;;;6.18;;
46717;SDS011;32448;44.960;-0.698;2022-10-28T10:19:23;10.40;;;5.13;;
46717;SDS011;32448;44.960;-0.698;2022-10-28T10:21:51;11.18;;;5.32;;
46717;SDS011;32448;44.960;-0.698;2022-10-28T10:24:29;17.20;;;6.33;;
46717;SDS011;32448;44.960;-0.698;2022-10-28T10:27:01;15.73;;;5.90;;
46717;SDS011;32448;44.960;-0.698;2022-10-28T10:29:42;16.27;;;6.13;;
46717;SDS011;32448;44.960;-0.698;2022-10-28T10:32:16;9.88;;;5.43;;
46717;SDS011;32448;44.960;-0.698;2022-10-28T10:34:56;12.27;;;5.38;;
46717;SDS011;32448;44.960;-0.698;2022-10-28T10:37:23;12.25;;;5.60;;
46717;SDS011;32448;44.960;-0.698;2022-10-28T10:42:29;11.57;;;5.40;;
46717;SDS011;32448;44.960;-0.698;2022-10-28T10:45:01;11.68;;;5.80;;
46717;SDS011;32448;44.960;-0.698;2022-10-28T10:47:41;11.98;;;6.10;;
46717;SDS011;32448;44.960;-0.698;2022-10-28T10:52:50;15.57;;;6.13;;
46717;SDS011;32448;44.960;-0.698;2022-10-28T10:55:21;15.60;;;5.95;;
46717;SDS011;32448;44.960;-0.698;2022-10-28T10:58:13;11.82;;;6.00;;
46717;SDS011;32448;44.960;-0.698;2022-10-28T11:00:44;15.88;;;5.70;;
46717;SDS011;32448;44.960;-0.698;2022-10-28T11:03:16;12.02;;;5.85;;
46717;SDS011;32448;44.960;-0.698;2022-10-28T11:05:52;13.18;;;6.00;;
46717;SDS011;32448;44.960;-0.698;2022-10-28T11:08:41;10.35;;;5.25;;
46717;SDS011;32448;44.960;-0.698;2022-10-28T11:11:11;11.60;;;5.85;;
46717;SDS011;32448;44.960;-0.698;2022-10-28T11:13:46;11.35;;;5.32;;
46717;SDS011;32448;44.960;-0.698;2022-10-28T11:16:27;15.18;;;6.43;;
46717;SDS011;32448;44.960;-0.698;2022-10-28T11:18:54;13.80;;;5.10;;
46717;SDS011;32448;44.960;-0.698;2022-10-28T11:29:40;9.60;;;5.30;;
46717;SDS011;32448;44.960;-0.698;2022-10-28T11:32:19;16.13;;;5.72;;
46717;SDS011;32448;44.960;-0.698;2022-10-28T11:35:37;14.50;;;5.70;;
46717;SDS011;32448;44.960;-0.698;2022-10-28T11:41:20;13.32;;;5.63;;
46717;SDS011;32448;44.960;-0.698;2022-10-28T11:43:55;11.73;;;5.18;;
46717;SDS011;32448;44.960;-0.698;2022-10-28T11:57:07;14.07;;;5.57;;
46717;SDS011;32448;44.960;-0.698;2022-10-28T12:07:47;17.10;;;5.55;;
46717;SDS011;32448;44.960;-0.698;2022-10-28T12:16:22;15.95;;;5.18;;
46717;SDS011;32448;44.960;-0.698;2022-10-28T12:19:00;16.27;;;5.53;;
46717;SDS011;32448;44.960;-0.698;2022-10-28T12:21:37;17.23;;;5.90;;
46717;SDS011;32448;44.960;-0.698;2022-10-28T12:24:14;12.48;;;4.85;;
46717;SDS011;32448;44.960;-0.698;2022-10-28T12:26:48;9.82;;;4.63;;
46717;SDS011;32448;44.960;-0.698;2022-10-28T12:29:26;10.15;;;4.88;;
46717;SDS011;32448;44.960;-0.698;2022-10-28T12:32:03;16.48;;;6.18;;
46717;SDS011;32448;44.960;-0.698;2022-10-28T12:34:36;18.52;;;5.10;;
46717;SDS011;32448;44.960;-0.698;2022-10-28T12:37:22;12.98;;;4.80;;
46717;SDS011;32448;44.960;-0.698;2022-10-28T12:42:38;12.50;;;5.18;;
46717;SDS011;32448;44.960;-0.698;2022-10-28T12:45:13;12.48;;;5.30;;
46717;SDS011;32448;44.960;-0.698;2022-10-28T12:53:25;13.55;;;4.75;;
46717;SDS011;32448;44.960;-0.698;2022-10-28T12:56:43;13.27;;;4.57;;
46717;SDS011;32448;44.960;-0.698;2022-10-28T12:59:24;14.75;;;5.10;;
46717;SDS011;32448;44.960;-0.698;2022-10-28T13:01:57;13.60;;;5.15;;
46717;SDS011;32448;44.960;-0.698;2022-10-28T13:04:27;17.13;;;4.68;;
46717;SDS011;32448;44.960;-0.698;2022-10-28T13:09:59;12.90;;;4.85;;
46717;SDS011;32448;44.960;-0.698;2022-10-28T13:16:04;14.45;;;5.20;;
46717;SDS011;32448;44.960;-0.698;2022-10-28T13:21:29;18.42;;;6.05;;
46717;SDS011;32448;44.960;-0.698;2022-10-28T13:24:18;14.10;;;4.85;;
46717;SDS011;32448;44.960;-0.698;2022-10-28T13:26:55;14.10;;;4.47;;
46717;SDS011;32448;44.960;-0.698;2022-10-28T13:29:24;17.20;;;5.35;;
46717;SDS011;32448;44.960;-0.698;2022-10-28T13:31:53;13.73;;;4.25;;
46717;SDS011;32448;44.960;-0.698;2022-10-28T13:34:28;12.65;;;4.53;;
46717;SDS011;32448;44.960;-0.698;2022-10-28T13:36:59;13.05;;;4.10;;
46717;SDS011;32448;44.960;-0.698;2022-10-28T13:39:43;14.10;;;4.47;;
46717;SDS011;32448;44.960;-0.698;2022-10-28T13:47:33;19.85;;;4.50;;
46717;SDS011;32448;44.960;-0.698;2022-10-28T13:52:36;14.57;;;4.30;;
46717;SDS011;32448;44.960;-0.698;2022-10-28T13:57:47;11.77;;;4.43;;
46717;SDS011;32448;44.960;-0.698;2022-10-28T14:03:00;10.85;;;3.90;;
46717;SDS011;32448;44.960;-0.698;2022-10-28T14:08:01;12.75;;;3.72;;
46717;SDS011;32448;44.960;-0.698;2022-10-28T14:10:31;15.05;;;4.20;;
46717;SDS011;32448;44.960;-0.698;2022-10-28T14:13:02;11.02;;;4.55;;
46717;SDS011;32448;44.960;-0.698;2022-10-28T14:15:46;16.75;;;4.25;;
46717;SDS011;32448;44.960;-0.698;2022-10-28T14:21:04;10.25;;;4.25;;
46717;SDS011;32448;44.960;-0.698;2022-10-28T14:26:00;14.45;;;4.22;;
46717;SDS011;32448;44.960;-0.698;2022-10-28T14:36:19;14.23;;;4.35;;
46717;SDS011;32448;44.960;-0.698;2022-10-28T14:41:48;15.95;;;4.68;;
46717;SDS011;32448;44.960;-0.698;2022-10-28T14:49:40;20.17;;;4.78;;
46717;SDS011;32448;44.960;-0.698;2022-10-28T14:52:23;16.83;;;4.95;;
46717;SDS011;32448;44.960;-0.698;2022-10-28T14:54:54;13.70;;;5.38;;
46717;SDS011;32448;44.960;-0.698;2022-10-28T14:57:28;12.30;;;4.45;;
46717;SDS011;32448;44.960;-0.698;2022-10-28T15:00:00;19.25;;;5.30;;
46717;SDS011;32448;44.960;-0.698;2022-10-28T15:02:33;13.80;;;4.53;;
46717;SDS011;32448;44.960;-0.698;2022-10-28T15:05:12;16.98;;;4.57;;
46717;SDS011;32448;44.960;-0.698;2022-10-28T15:07:47;19.17;;;4.60;;
46717;SDS011;32448;44.960;-0.698;2022-10-28T15:10:15;12.38;;;4.03;;
46717;SDS011;32448;44.960;-0.698;2022-10-28T15:12:45;13.13;;;4.70;;
46717;SDS011;32448;44.960;-0.698;2022-10-28T15:15:18;17.30;;;4.88;;
46717;SDS011;32448;44.960;-0.698;2022-10-28T15:17:48;15.00;;;4.70;;
46717;SDS011;32448;44.960;-0.698;2022-10-28T15:20:23;12.30;;;4.40;;
46717;SDS011;32448;44.960;-0.698;2022-10-28T15:25:38;16.63;;;4.68;;
46717;SDS011;32448;44.960;-0.698;2022-10-28T15:28:07;13.43;;;4.47;;
46717;SDS011;32448;44.960;-0.698;2022-10-28T15:30:37;15.85;;;4.95;;
46717;SDS011;32448;44.960;-0.698;2022-10-28T15:33:28;13.82;;;4.20;;
46717;SDS011;32448;44.960;-0.698;2022-10-28T15:38:50;15.77;;;4.60;;
46717;SDS011;32448;44.960;-0.698;2022-10-28T15:41:39;16.08;;;4.55;;
46717;SDS011;32448;44.960;-0.698;2022-10-28T15:46:54;11.13;;;4.82;;
46717;SDS011;32448;44.960;-0.698;2022-10-28T15:49:40;10.57;;;4.78;;
46717;SDS011;32448;44.960;-0.698;2022-10-28T15:54:54;11.70;;;4.78;;
46717;SDS011;32448;44.960;-0.698;2022-10-28T15:57:30;14.68;;;5.20;;
46717;SDS011;32448;44.960;-0.698;2022-10-28T16:00:28;14.93;;;5.05;;
46717;SDS011;32448;44.960;-0.698;2022-10-28T16:03:02;18.27;;;4.68;;
46717;SDS011;32448;44.960;-0.698;2022-10-28T16:08:00;15.23;;;5.25;;
46717;SDS011;32448;44.960;-0.698;2022-10-28T16:10:30;12.20;;;4.70;;
46717;SDS011;32448;44.960;-0.698;2022-10-28T16:13:02;16.30;;;5.38;;
46717;SDS011;32448;44.960;-0.698;2022-10-28T16:15:42;14.05;;;5.50;;
46717;SDS011;32448;44.960;-0.698;2022-10-28T16:18:15;15.07;;;5.05;;
46717;SDS011;32448;44.960;-0.698;2022-10-28T16:20:43;13.68;;;5.55;;
46717;SDS011;32448;44.960;-0.698;2022-10-28T16:23:17;13.77;;;5.10;;
46717;SDS011;32448;44.960;-0.698;2022-10-28T16:25:48;20.20;;;5.22;;
46717;SDS011;32448;44.960;-0.698;2022-10-28T16:28:20;11.52;;;4.80;;
46717;SDS011;32448;44.960;-0.698;2022-10-28T16:30:53;15.43;;;5.35;;
46717;SDS011;32448;44.960;-0.698;2022-10-28T16:33:25;15.02;;;4.60;;
46717;SDS011;32448;44.960;-0.698;2022-10-28T16:35:58;18.67;;;6.43;;
46717;SDS011;32448;44.960;-0.698;2022-10-28T16:38:28;13.65;;;6.28;;
46717;SDS011;32448;44.960;-0.698;2022-10-28T16:40:56;12.57;;;6.13;;
46717;SDS011;32448;44.960;-0.698;2022-10-28T16:43:26;13.32;;;5.38;;
46717;SDS011;32448;44.960;-0.698;2022-10-28T16:45:55;15.38;;;5.55;;
46717;SDS011;32448;44.960;-0.698;2022-10-28T16:48:25;14.57;;;5.75;;
46717;SDS011;32448;44.960;-0.698;2022-10-28T16:50:54;12.77;;;5.57;;
46717;SDS011;32448;44.960;-0.698;2022-10-28T16:53:24;13.05;;;5.90;;
46717;SDS011;32448;44.960;-0.698;2022-10-28T16:55:52;19.80;;;6.75;;
46717;SDS011;32448;44.960;-0.698;2022-10-28T16:58:25;12.70;;;5.57;;
46717;SDS011;32448;44.960;-0.698;2022-10-28T17:00:54;18.10;;;5.55;;
46717;SDS011;32448;44.960;-0.698;2022-10-28T17:03:21;11.48;;;5.80;;
46717;SDS011;32448;44.960;-0.698;2022-10-28T17:05:48;14.57;;;5.60;;
46717;SDS011;32448;44.960;-0.698;2022-10-28T17:08:16;13.90;;;6.25;;
46717;SDS011;32448;44.960;-0.698;2022-10-28T17:11:01;11.35;;;5.40;;
46717;SDS011;32448;44.960;-0.698;2022-10-28T17:13:30;14.82;;;5.75;;
46717;SDS011;32448;44.960;-0.698;2022-10-28T17:15:57;17.00;;;5.78;;
46717;SDS011;32448;44.960;-0.698;2022-10-28T17:18:24;21.85;;;6.40;;
46717;SDS011;32448;44.960;-0.698;2022-10-28T17:21:01;15.35;;;6.47;;
46717;SDS011;32448;44.960;-0.698;2022-10-28T17:23:29;14.20;;;6.10;;
46717;SDS011;32448;44.960;-0.698;2022-10-28T17:26:00;15.77;;;6.22;;
46717;SDS011;32448;44.960;-0.698;2022-10-28T17:28:28;15.90;;;6.32;;
46717;SDS011;32448;44.960;-0.698;2022-10-28T17:31:02;14.13;;;6.03;;
46717;SDS011;32448;44.960;-0.698;2022-10-28T17:33:31;13.00;;;6.13;;
46717;SDS011;32448;44.960;-0.698;2022-10-28T17:36:02;14.95;;;6.32;;